Time;durP1;ratioP1;P1;durP2;ratioP2;P2;SDS_P1;SDS_P2;PMS_P1;PMS_P2;Temp;Humidity;BMP_temperature;BMP_pressure;BME280_temperature;BME280_humidity;BME280_pressure;Samples;Min_cycle;Max_cycle;Signal;HPM_P1;HPM_P2
2021/12/04 00:00:09;;;;;;;;;;;;;;;6.78;90.96;99764.19;5039476;28;19928;-81
2021/12/04 00:02:37;;;;;;;;;;;;;;;6.76;90.86;99760.81;5038323;28;19982;-81
2021/12/04 00:05:05;;;;;;;;;;;;;;;6.75;90.96;99760.91;5037340;28;19932;-81
2021/12/04 00:07:33;;;;;;;;;;;;;;;6.74;90.56;99757.41;5036578;28;19936;-82
2021/12/04 00:10:02;;;;;;;;;;;;;;;6.75;90.77;99756.44;5039178;28;20304;-80
2021/12/04 00:12:30;;;;;;;;;;;;;;;6.73;91.19;99747.75;5039928;28;19936;-81
2021/12/04 00:14:56;;;;;;;;;;;;;;;6.76;90.41;99752.84;5036415;28;20355;-81
2021/12/04 00:17:23;;;;;;;;;;;;;;;6.80;90.97;99737.53;5039444;28;19932;-81
2021/12/04 00:19:51;;;;;;;;;;;;;;;6.80;90.83;99745.50;5037175;28;19929;-82
2021/12/04 00:22:17;;;;;;;;;;;;;;;6.76;90.64;99736.91;5039055;28;19924;-81
2021/12/04 00:24:44;;;;;;;;;;;;;;;6.79;90.51;99734.00;5037517;28;19933;-81
2021/12/04 00:27:10;;;;;;;;;;;;;;;6.85;91.47;99723.91;5039371;28;19977;-81
2021/12/04 00:29:36;;;;;;;;;;;;;;;6.87;90.66;99722.81;5042104;28;19968;-81
2021/12/04 00:32:09;;;;;;;;;;;;;;;6.86;90.06;99715.00;5035174;28;19924;-81
2021/12/04 00:34:38;;;;;;;;;;;;;;;6.85;90.53;99713.31;5039143;28;19933;-81
2021/12/04 00:51:08;;;;;;;;;;;;;;;6.87;90.55;99722.00;5036188;28;20311;-81
2021/12/04 00:53:36;;;;;;;;;;;;;;;6.86;89.84;99722.97;5036243;28;20332;-81
2021/12/04 00:56:02;;;;;;;;;;;;;;;6.82;90.90;99725.84;5034611;28;19929;-81
2021/12/04 00:58:29;;;;;;;;;;;;;;;6.82;90.42;99723.19;5036695;28;19936;-80
2021/12/04 01:00:55;;;;;;;;;;;;;;;6.85;90.05;99713.31;5039120;28;20039;-81
2021/12/04 01:03:21;;;;;;;;;;;;;;;6.83;90.65;99711.59;5037104;28;19929;-81
2021/12/04 01:05:48;;;;;;;;;;;;;;;6.79;91.01;99710.13;5035603;28;20270;-81
2021/12/04 01:08:14;;;;;;;;;;;;;;;6.81;90.26;99705.56;5039076;28;19929;-81
2021/12/04 01:10:42;;;;;;;;;;;;;;;6.84;91.11;99699.19;5039326;28;20119;-81
2021/12/04 01:13:11;;;;;;;;;;;;;;;6.85;90.87;99695.56;5044191;28;19928;-81
2021/12/04 01:15:38;;;;;;;;;;;;;;;6.86;91.04;99705.22;5043193;28;19929;-81
2021/12/04 01:18:04;;;;;;;;;;;;;;;6.83;90.20;99694.84;5040246;28;20368;-81
2021/12/04 01:20:31;;;;;;;;;;;;;;;6.83;90.75;99698.31;5040320;28;19933;-81
2021/12/04 01:22:57;;;;;;;;;;;;;;;6.84;90.86;99699.19;5040781;28;19984;-81
2021/12/04 01:25:24;;;;;;;;;;;;;;;6.81;90.78;99689.63;5040650;28;19925;-81
2021/12/04 01:27:52;;;;;;;;;;;;;;;6.82;91.39;99685.19;5042795;28;19960;-81
2021/12/04 01:30:18;;;;;;;;;;;;;;;6.83;91.11;99676.25;5039903;28;20391;-81
2021/12/04 01:32:45;;;;;;;;;;;;;;;6.81;90.90;99672.88;5040491;28;20028;-81
2021/12/04 01:35:11;;;;;;;;;;;;;;;6.81;91.76;99672.88;5042430;28;19974;-81
2021/12/04 01:37:38;;;;;;;;;;;;;;;6.82;91.44;99674.59;5043270;28;19935;-81
2021/12/04 01:40:05;;;;;;;;;;;;;;;6.87;91.08;99671.56;5043599;28;20550;-81
2021/12/04 01:42:35;;;;;;;;;;;;;;;6.85;91.31;99674.31;5039986;28;20035;-80
2021/12/04 01:45:03;;;;;;;;;;;;;;;6.81;90.84;99681.66;5042227;28;19924;-81
2021/12/04 01:47:29;;;;;;;;;;;;;;;6.79;91.52;99678.28;5044489;28;20024;-81
2021/12/04 01:49:58;;;;;;;;;;;;;;;6.83;91.75;99678.91;5042259;28;19933;-81
2021/12/04 01:52:24;;;;;;;;;;;;;;;6.86;91.68;99677.84;5037942;28;19925;-81
2021/12/04 01:54:51;;;;;;;;;;;;;;;6.88;90.67;99670.63;5041465;28;20372;-81
2021/12/04 01:57:20;;;;;;;;;;;;;;;6.85;91.20;99663.72;5042281;28;19924;-82
2021/12/04 01:59:48;;;;;;;;;;;;;;;6.79;91.06;99662.38;5041368;28;20031;-81
2021/12/04 02:02:15;;;;;;;;;;;;;;;6.75;90.66;99652.13;5042914;28;20384;-81
2021/12/04 02:04:42;;;;;;;;;;;;;;;6.75;91.53;99662.72;5038600;28;20353;-81
2021/12/04 02:07:10;;;;;;;;;;;;;;;6.77;91.69;99658.97;5039725;28;19925;-81
2021/12/04 02:09:37;;;;;;;;;;;;;;;6.81;91.92;99647.16;5039687;28;19951;-81
2021/12/04 02:12:05;;;;;;;;;;;;;;;6.83;91.58;99644.41;5042417;28;19925;-81
2021/12/04 02:14:32;;;;;;;;;;;;;;;6.89;92.16;99649.25;5040649;28;19932;-81
2021/12/04 02:16:58;;;;;;;;;;;;;;;6.91;91.52;99643.81;5041766;28;19935;-81
2021/12/04 02:19:26;;;;;;;;;;;;;;;6.94;92.18;99651.56;5040415;28;19932;-81
2021/12/04 02:21:54;;;;;;;;;;;;;;;6.98;91.85;99653.84;5042544;28;19939;-81
2021/12/04 02:24:20;;;;;;;;;;;;;;;6.99;90.99;99644.09;5039424;28;20312;-81
2021/12/04 02:26:47;;;;;;;;;;;;;;;6.95;90.87;99651.47;5042669;28;20299;-81
2021/12/04 02:29:14;;;;;;;;;;;;;;;6.90;91.15;99645.63;5040327;28;20420;-81
2021/12/04 02:31:40;;;;;;;;;;;;;;;6.88;91.80;99636.94;5039618;28;19979;-81
2021/12/04 02:34:07;;;;;;;;;;;;;;;6.87;91.42;99635.25;5039380;28;19932;-81
2021/12/04 02:36:33;;;;;;;;;;;;;;;6.87;91.49;99639.72;5041459;28;19928;-81
2021/12/04 02:39:02;;;;;;;;;;;;;;;6.92;92.04;99645.53;5040514;28;19959;-81
2021/12/04 02:41:29;;;;;;;;;;;;;;;6.95;91.98;99646.16;5041106;28;19952;-81
2021/12/04 02:43:55;;;;;;;;;;;;;;;6.98;91.49;99637.09;5043367;28;20007;-81
2021/12/04 02:46:21;;;;;;;;;;;;;;;7.00;91.69;99635.16;5039587;28;19956;-81
2021/12/04 02:48:48;;;;;;;;;;;;;;;7.03;91.47;99640.25;5038047;28;19929;-81
2021/12/04 02:51:16;;;;;;;;;;;;;;;7.05;91.31;99637.47;5040033;28;19967;-81
2021/12/04 02:53:43;;;;;;;;;;;;;;;7.02;91.08;99642.03;5039021;28;20405;-83
2021/12/04 02:56:11;;;;;;;;;;;;;;;7.04;91.06;99641.94;5040228;28;19984;-81
2021/12/04 02:58:39;;;;;;;;;;;;;;;7.09;91.27;99639.78;5040539;28;19933;-81
2021/12/04 03:01:05;;;;;;;;;;;;;;;7.11;91.36;99642.31;5041092;28;20258;-80
2021/12/04 03:03:32;;;;;;;;;;;;;;;7.12;91.56;99634.22;5041672;28;19944;-80
2021/12/04 03:05:59;;;;;;;;;;;;;;;7.14;91.20;99634.97;5042160;28;19932;-81
2021/12/04 03:08:25;;;;;;;;;;;;;;;7.16;90.92;99635.69;5043729;28;21305;-81
2021/12/04 03:10:52;;;;;;;;;;;;;;;7.14;91.53;99642.94;5041390;28;20019;-81
2021/12/04 03:13:21;;;;;;;;;;;;;;;7.12;90.85;99639.53;5041295;28;19929;-81
2021/12/04 03:15:55;;;;;;;;;;;;;;;7.15;90.70;99635.78;5041874;28;20023;-81
2021/12/04 03:18:22;;;;;;;;;;;;;;;7.11;91.72;99627.22;5040337;28;19932;-81
2021/12/04 03:20:51;;;;;;;;;;;;;;;7.12;90.63;99618.31;5039440;28;20357;-81
2021/12/04 03:23:24;;;;;;;;;;;;;;;7.11;91.70;99613.94;5039494;28;19925;-82
2021/12/04 03:25:53;;;;;;;;;;;;;;;7.12;91.65;99617.44;5043421;28;20016;-81
2021/12/04 03:28:21;;;;;;;;;;;;;;;7.13;90.98;99617.31;5039005;28;19988;-82
2021/12/04 03:30:52;;;;;;;;;;;;;;;7.14;91.96;99619.03;5038561;28;20012;-83
2021/12/04 03:41:30;;;;;;;;;;;;;;;7.23;90.42;99601.50;5040777;28;20033;-81
2021/12/04 03:43:57;;;;;;;;;;;;;;;7.21;91.58;99598.13;5042886;28;19932;-81
2021/12/04 03:46:25;;;;;;;;;;;;;;;7.20;91.63;99596.47;5037768;28;19948;-81
2021/12/04 03:48:53;;;;;;;;;;;;;;;7.22;90.91;99591.88;5038896;28;20431;-81
2021/12/04 03:51:20;;;;;;;;;;;;;;;7.26;91.11;99588.00;5033749;28;19933;-81
2021/12/04 03:53:46;;;;;;;;;;;;;;;7.29;91.04;99587.78;5037443;28;19929;-81
2021/12/04 03:56:14;;;;;;;;;;;;;;;7.33;91.35;99585.72;5039022;28;20295;-81
2021/12/04 03:58:41;;;;;;;;;;;;;;;7.37;90.98;99592.50;5039889;28;19975;-81
2021/12/04 04:01:09;;;;;;;;;;;;;;;7.39;90.88;99580.75;5034581;28;19992;-81
2021/12/04 04:03:35;;;;;;;;;;;;;;;7.38;90.55;99580.88;5037244;28;19929;-81
2021/12/04 04:06:02;;;;;;;;;;;;;;;7.37;91.20;99584.53;5037077;28;19933;-81
2021/12/04 04:08:28;;;;;;;;;;;;;;;7.40;91.62;99584.25;5035170;28;20463;-81
2021/12/04 04:10:55;;;;;;;;;;;;;;;7.44;91.14;99584.88;5036826;28;20012;-81
2021/12/04 04:13:21;;;;;;;;;;;;;;;7.47;90.69;99581.97;5035602;28;19933;-81
2021/12/04 04:15:48;;;;;;;;;;;;;;;7.49;90.29;99577.38;5037693;28;19924;-81
2021/12/04 04:18:16;;;;;;;;;;;;;;;7.52;90.25;99579.81;5040209;28;19978;-81
2021/12/04 04:20:42;;;;;;;;;;;;;;;7.53;90.89;99570.84;5034620;28;19933;-81
2021/12/04 04:23:09;;;;;;;;;;;;;;;7.54;90.15;99570.72;5034393;28;19939;-81
2021/12/04 04:25:35;;;;;;;;;;;;;;;7.55;90.66;99564.47;5035383;28;19925;-81
2021/12/04 04:28:02;;;;;;;;;;;;;;;7.59;91.16;99565.91;5038785;28;20292;-81
2021/12/04 04:30:28;;;;;;;;;;;;;;;7.60;91.04;99570.25;5035477;28;20007;-81
2021/12/04 04:32:55;;;;;;;;;;;;;;;7.59;90.83;99571.22;5037637;28;20015;-81
2021/12/04 04:35:25;;;;;;;;;;;;;;;7.54;89.73;99554.78;5037507;28;19933;-82
2021/12/04 04:37:57;;;;;;;;;;;;;;;7.54;90.31;99560.09;5037163;28;19928;-81
2021/12/04 05:00:05;;;;;;;;;;;;;;;7.64;89.71;99538.13;5043237;28;19987;-81
2021/12/04 05:11:10;;;;;;;;;;;;;;;7.60;89.55;99533.03;5040300;28;19932;-81
2021/12/04 05:13:36;;;;;;;;;;;;;;;7.62;90.25;99526.78;5043094;28;19936;-81
2021/12/04 05:16:12;;;;;;;;;;;;;;;7.65;90.72;99529.16;5041638;28;19936;-81
2021/12/04 05:18:41;;;;;;;;;;;;;;;7.68;90.61;99527.09;5040792;28;20292;-81
2021/12/04 05:21:10;;;;;;;;;;;;;;;7.69;90.55;99514.69;5036714;28;19955;-81
2021/12/04 05:23:38;;;;;;;;;;;;;;;7.68;90.10;99515.63;5037066;28;20368;-81
2021/12/04 05:26:06;;;;;;;;;;;;;;;7.66;90.52;99507.78;5037713;28;20387;-81
2021/12/04 05:28:33;;;;;;;;;;;;;;;7.63;90.35;99525.78;5038585;28;20519;-81
2021/12/04 05:31:00;;;;;;;;;;;;;;;7.59;89.39;99534.03;5038628;28;19932;-81
2021/12/04 05:33:26;;;;;;;;;;;;;;;7.55;89.24;99526.41;5039788;28;19941;-81
2021/12/04 05:35:53;;;;;;;;;;;;;;;7.51;89.92;99527.63;5042347;28;19939;-81
2021/12/04 05:38:20;;;;;;;;;;;;;;;7.50;90.64;99529.44;5041733;28;20329;-81
2021/12/04 05:40:48;;;;;;;;;;;;;;;7.50;89.54;99525.94;5037213;28;19929;-81
2021/12/04 05:43:14;;;;;;;;;;;;;;;7.48;89.67;99531.38;5039193;28;19929;-81
2021/12/04 05:45:44;;;;;;;;;;;;;;;7.44;89.66;99518.44;5041262;28;19932;-81
2021/12/04 05:48:14;;;;;;;;;;;;;;;7.41;89.76;99512.41;5038050;28;19932;-81
2021/12/04 05:53:23;;;;;;;;;;;;;;;7.34;89.91;99505.91;5039761;28;19932;-81
2021/12/04 05:55:54;;;;;;;;;;;;;;;7.33;89.14;99508.72;5035595;28;19992;-81
2021/12/04 05:58:22;;;;;;;;;;;;;;;7.36;90.27;99506.63;5040906;28;19933;-81
2021/12/04 06:00:49;;;;;;;;;;;;;;;7.39;89.94;99498.41;5039812;28;19936;-81
2021/12/04 06:03:15;;;;;;;;;;;;;;;7.42;89.64;99502.63;5039918;28;20031;-81
2021/12/04 06:05:42;;;;;;;;;;;;;;;7.44;89.91;99498.06;5040757;28;20355;-81
2021/12/04 06:08:08;;;;;;;;;;;;;;;7.49;90.22;99505.66;5042082;28;19943;-81
2021/12/04 06:10:35;;;;;;;;;;;;;;;7.52;89.48;99505.41;5037050;28;19924;-81
2021/12/04 06:13:02;;;;;;;;;;;;;;;7.50;89.75;99492.25;5039983;28;19935;-81
2021/12/04 06:15:29;;;;;;;;;;;;;;;7.47;89.40;99504.94;5036193;28;20308;-81
2021/12/04 06:17:56;;;;;;;;;;;;;;;7.45;89.31;99497.09;5039142;28;19929;-81
2021/12/04 06:23:06;;;;;;;;;;;;;;;7.42;88.66;99505.28;5039437;28;19940;-81
2021/12/04 06:25:32;;;;;;;;;;;;;;;7.35;88.53;99507.59;5040467;28;19985;-81
2021/12/04 06:27:59;;;;;;;;;;;;;;;7.32;89.29;99502.53;5039247;28;19925;-81
2021/12/04 06:30:27;;;;;;;;;;;;;;;7.28;89.15;99495.78;5038303;28;20392;-82
2021/12/04 06:32:54;;;;;;;;;;;;;;;7.27;88.93;99507.38;5039491;28;19928;-82
2021/12/04 06:35:22;;;;;;;;;;;;;;;7.25;89.76;99503.16;5039087;28;19932;-82
2021/12/04 06:37:49;;;;;;;;;;;;;;;7.25;89.24;99501.31;5037977;28;19925;-81
2021/12/04 06:40:17;;;;;;;;;;;;;;;7.27;89.21;99509.19;5039071;28;20312;-81
2021/12/04 06:42:44;;;;;;;;;;;;;;;7.25;89.25;99516.44;5038780;28;19933;-82
2021/12/04 06:45:11;;;;;;;;;;;;;;;7.19;89.40;99507.97;5038876;28;20907;-81
2021/12/04 06:47:46;;;;;;;;;;;;;;;7.07;89.10;99510.78;5040955;28;20040;-81
2021/12/04 06:50:17;;;;;;;;;;;;;;;7.01;88.90;99515.59;5039358;28;19940;-81
2021/12/04 06:52:47;;;;;;;;;;;;;;;6.96;89.23;99508.97;5036235;28;20339;-81
2021/12/04 06:55:15;;;;;;;;;;;;;;;6.92;89.28;99504.84;5036840;28;19995;-81
2021/12/04 06:57:43;;;;;;;;;;;;;;;6.92;89.26;99491.59;5037384;28;19955;-81
2021/12/04 07:00:11;;;;;;;;;;;;;;;6.89;89.25;99495.31;5038369;28;20010;-81
2021/12/04 07:02:38;;;;;;;;;;;;;;;6.89;90.10;99499.78;5040790;28;19929;-81
2021/12/04 07:05:05;;;;;;;;;;;;;;;6.91;89.83;99497.84;5040941;28;19933;-81
2021/12/04 07:07:32;;;;;;;;;;;;;;;6.90;89.65;99489.03;5041593;28;20280;-81
2021/12/04 07:09:58;;;;;;;;;;;;;;;6.92;90.17;99491.59;5039066;28;19928;-81
2021/12/04 07:12:25;;;;;;;;;;;;;;;6.93;90.36;99486.16;5037248;28;20406;-82
2021/12/04 07:14:52;;;;;;;;;;;;;;;6.96;90.49;99485.91;5036998;28;19980;-81
2021/12/04 07:17:18;;;;;;;;;;;;;;;6.97;90.14;99484.94;5037476;28;19928;-81
2021/12/04 07:19:46;;;;;;;;;;;;;;;7.00;89.83;99490.00;5036798;28;19932;-81
2021/12/04 07:22:12;;;;;;;;;;;;;;;7.01;89.65;99490.88;5035807;28;19928;-81
2021/12/04 07:24:39;;;;;;;;;;;;;;;6.94;88.90;99487.00;5037845;28;19984;-81
2021/12/04 07:27:06;;;;;;;;;;;;;;;6.91;89.44;99480.13;5036549;28;19935;-81
2021/12/04 07:29:33;;;;;;;;;;;;;;;6.88;89.85;99468.91;5038082;28;19936;-81
2021/12/04 07:31:59;;;;;;;;;;;;;;;6.87;90.13;99461.91;5039660;28;19929;-81
2021/12/04 07:34:26;;;;;;;;;;;;;;;6.86;90.06;99458.41;5039758;28;20299;-81
2021/12/04 07:36:53;;;;;;;;;;;;;;;6.83;89.29;99453.34;5038526;28;19925;-81
2021/12/04 07:39:20;;;;;;;;;;;;;;;6.84;89.71;99449.72;5040172;28;19940;-81
2021/12/04 07:41:46;;;;;;;;;;;;;;;6.86;90.48;99447.78;5039370;28;19932;-81
2021/12/04 07:44:13;;;;;;;;;;;;;;;6.90;90.23;99448.41;5036319;28;20373;-81
2021/12/04 07:46:40;;;;;;;;;;;;;;;6.91;89.85;99442.09;5036646;28;20322;-81
2021/12/04 07:49:07;;;;;;;;;;;;;;;6.91;90.02;99435.00;5041139;28;20008;-81
2021/12/04 07:51:33;;;;;;;;;;;;;;;6.90;90.30;99435.13;5038427;28;19925;-81
2021/12/04 07:54:01;;;;;;;;;;;;;;;6.87;90.23;99428.22;5040287;28;20035;-81
2021/12/04 07:56:28;;;;;;;;;;;;;;;6.88;90.15;99415.84;5036529;28;19929;-82
2021/12/04 07:58:54;;;;;;;;;;;;;;;6.89;90.22;99422.81;5037592;28;19946;-82
2021/12/04 08:01:21;;;;;;;;;;;;;;;6.86;90.15;99408.00;5034626;28;19932;-82
2021/12/04 08:03:47;;;;;;;;;;;;;;;6.88;90.12;99419.31;5037127;28;19971;-81
2021/12/04 08:06:13;;;;;;;;;;;;;;;6.91;90.15;99418.22;5039127;28;20019;-81
2021/12/04 08:08:40;;;;;;;;;;;;;;;6.93;90.54;99417.16;5039914;28;19933;-81
2021/12/04 08:11:08;;;;;;;;;;;;;;;6.95;90.12;99419.66;5036121;28;19929;-81
2021/12/04 08:13:34;;;;;;;;;;;;;;;6.96;90.71;99419.53;5036811;28;19968;-81
2021/12/04 08:16:00;;;;;;;;;;;;;;;6.92;89.45;99418.09;5038126;28;19932;-82
2021/12/04 08:18:28;;;;;;;;;;;;;;;6.92;90.52;99418.09;5041889;28;20051;-81
2021/12/04 08:20:54;;;;;;;;;;;;;;;6.94;90.11;99425.94;5039673;28;19932;-82
2021/12/04 08:23:21;;;;;;;;;;;;;;;6.92;90.46;99430.53;5038737;28;20043;-81
2021/12/04 08:25:47;;;;;;;;;;;;;;;6.95;90.27;99436.44;5037321;28;20019;-81
2021/12/04 08:28:15;;;;;;;;;;;;;;;6.94;90.53;99437.41;5037454;28;19932;-81
2021/12/04 08:30:42;;;;;;;;;;;;;;;6.93;89.97;99434.88;5036713;28;20653;-81
2021/12/04 08:33:10;;;;;;;;;;;;;;;6.92;90.66;99435.84;5037294;28;19933;-81
2021/12/04 08:35:39;;;;;;;;;;;;;;;6.94;90.49;99426.78;5038965;28;19933;-81
2021/12/04 08:38:06;;;;;;;;;;;;;;;6.52;90.06;99348.81;5040810;28;19932;-81
2021/12/04 08:40:33;;;;;;;;;;;;;;;7.06;91.53;99424.13;5038373;28;19967;-81
2021/12/04 08:43:00;;;;;;;;;;;;;;;7.10;90.72;99429.06;5041044;28;20015;-81
2021/12/04 08:45:28;;;;;;;;;;;;;;;7.07;89.88;99418.69;5039193;28;19936;-81
2021/12/04 08:47:55;;;;;;;;;;;;;;;7.06;90.80;99419.66;5037062;28;20373;-81
2021/12/04 08:50:22;;;;;;;;;;;;;;;7.07;90.33;99423.16;5037676;28;19936;-81
2021/12/04 08:52:49;;;;;;;;;;;;;;;7.10;90.58;99413.16;5040234;28;19931;-81
2021/12/04 08:55:16;;;;;;;;;;;;;;;7.11;90.86;99411.34;5037069;28;19980;-81
2021/12/04 08:57:43;;;;;;;;;;;;;;;7.12;91.39;99403.25;5042725;28;19931;-81
2021/12/04 09:00:11;;;;;;;;;;;;;;;7.14;91.01;99400.44;5038824;28;19936;-81
2021/12/04 09:02:40;;;;;;;;;;;;;;;7.18;91.14;99409.88;5039066;28;20015;-81
2021/12/04 09:05:07;;;;;;;;;;;;;;;7.16;90.20;99391.41;5040532;28;19932;-81
2021/12/04 09:07:34;;;;;;;;;;;;;;;7.20;91.08;99405.28;5037720;28;19933;-81
2021/12/04 09:10:00;;;;;;;;;;;;;;;7.24;90.24;99403.22;5037337;28;19928;-81
2021/12/04 09:12:28;;;;;;;;;;;;;;;7.25;90.91;99394.28;5038395;28;19943;-81
2021/12/04 09:14:55;;;;;;;;;;;;;;;7.20;90.75;99384.88;5036409;28;19933;-81
2021/12/04 09:17:22;;;;;;;;;;;;;;;7.21;91.26;99386.56;5032806;28;19940;-81
2021/12/04 09:19:50;;;;;;;;;;;;;;;7.22;90.02;99382.09;5039334;28;19936;-81
2021/12/04 09:22:24;;;;;;;;;;;;;;;7.24;91.22;99392.59;5038055;28;19929;-81
2021/12/04 09:24:54;;;;;;;;;;;;;;;7.26;90.55;99393.31;5040332;28;19983;-81
2021/12/04 09:27:33;;;;;;;;;;;;;;;7.26;90.58;99383.53;5036950;28;19933;-81
2021/12/04 09:30:11;;;;;;;;;;;;;;;7.29;90.72;99366.50;5037764;28;19932;-81
2021/12/04 10:00:14;;;;;;;;;;;;;;;7.39;91.18;99339.06;5040720;28;19939;-81
2021/12/04 10:03:03;;;;;;;;;;;;;;;7.39;90.66;99351.50;5041711;28;20354;-81
2021/12/04 10:05:57;;;;;;;;;;;;;;;7.36;90.65;99344.59;5040046;28;19933;-81
2021/12/04 10:19:58;;;;;;;;;;;;;;;7.45;90.60;99329.72;5038638;28;19965;-81
2021/12/04 10:22:35;;;;;;;;;;;;;;;7.50;90.85;99337.34;5042132;28;19932;-81
2021/12/04 10:32:00;;;;;;;;;;;;;;;7.50;90.09;99340.81;5038013;28;20010;-81
2021/12/04 10:33:39;;;;;;;;;;;;;;;7.37;90.25;99338.34;5056349;28;19955;-82
2021/12/04 10:36:06;;;;;;;;;;;;;;;7.32;89.88;99329.91;5059907;28;20556;-81
2021/12/04 10:38:39;;;;;;;;;;;;;;;7.30;89.60;99350.44;5058095;28;19935;-81
2021/12/04 10:41:08;;;;;;;;;;;;;;;7.28;90.66;99338.25;5058955;28;20360;-81
2021/12/04 10:43:35;;;;;;;;;;;;;;;7.24;90.49;99339.50;5059057;28;19933;-81
2021/12/04 10:46:10;;;;;;;;;;;;;;;7.23;90.24;99335.97;5060405;28;19982;-81
2021/12/04 10:48:43;;;;;;;;;;;;;;;7.20;90.10;99337.06;5057038;28;20491;-81
2021/12/04 10:51:20;;;;;;;;;;;;;;;7.21;91.13;99324.63;5053239;28;19928;-81
2021/12/04 10:53:48;;;;;;;;;;;;;;;7.24;90.45;99326.22;5061950;28;19933;-80
2021/12/04 10:56:28;;;;;;;;;;;;;;;7.28;90.53;99323.16;5056878;28;19933;-81
2021/12/04 10:59:14;;;;;;;;;;;;;;;7.29;90.35;99321.34;5059849;28;20484;-86
2021/12/04 11:01:55;;;;;;;;;;;;;;;7.35;91.21;99315.53;5056237;28;19931;-81
2021/12/04 11:04:30;;;;;;;;;;;;;;;7.40;91.80;99322.16;5058133;28;19928;-81
2021/12/04 11:37:19;;;;;;;;;;;;;;;7.63;90.34;99252.97;5048479;28;19990;-81
2021/12/04 11:40:04;;;;;;;;;;;;;;;7.60;91.47;99255.88;5056505;28;19932;-81
2021/12/04 11:42:38;;;;;;;;;;;;;;;7.54;90.62;99245.78;5054321;28;19929;-81
2021/12/04 11:45:14;;;;;;;;;;;;;;;7.54;91.37;99245.78;5052409;28;21323;-81
2021/12/04 11:47:42;;;;;;;;;;;;;;;7.50;90.50;99241.69;5053723;28;20384;-81
2021/12/04 11:50:19;;;;;;;;;;;;;;;7.48;90.61;99241.81;5055748;28;19928;-81
2021/12/04 11:52:47;;;;;;;;;;;;;;;7.51;91.93;99240.72;5053662;28;19933;-81
2021/12/04 11:55:13;;;;;;;;;;;;;;;7.52;90.74;99245.91;5052903;28;20059;-81
2021/12/04 11:57:40;;;;;;;;;;;;;;;7.52;90.84;99261.00;5054794;28;19957;-81
2021/12/04 12:00:11;;;;;;;;;;;;;;;7.51;91.32;99262.78;5052544;28;19937;-81
2021/12/04 12:02:37;;;;;;;;;;;;;;;7.54;90.88;99253.75;5056657;28;20368;-81
2021/12/04 12:05:08;;;;;;;;;;;;;;;7.53;90.96;99247.56;5050300;28;19932;-82
2021/12/04 12:07:34;;;;;;;;;;;;;;;7.55;90.95;99245.66;5052565;28;19933;-81
2021/12/04 12:10:04;;;;;;;;;;;;;;;7.60;91.40;99246.06;5052874;28;20243;-81
2021/12/04 12:12:33;;;;;;;;;;;;;;;7.59;91.74;99236.44;5053716;28;19939;-81
2021/12/04 12:15:04;;;;;;;;;;;;;;;7.62;91.13;99235.31;5055138;28;19985;-81
2021/12/04 12:17:33;;;;;;;;;;;;;;;7.63;91.00;99229.06;5057312;28;19936;-81
2021/12/04 12:20:00;;;;;;;;;;;;;;;7.64;91.80;99227.22;5053869;28;19968;-81
2021/12/04 12:22:37;;;;;;;;;;;;;;;7.67;91.58;99221.66;5056100;28;19932;-81
2021/12/04 12:25:20;;;;;;;;;;;;;;;7.66;91.75;99217.31;5050208;28;20035;-81
2021/12/04 12:33:24;;;;;;;;;;;;;;;7.69;91.80;99220.53;5052904;28;19975;-81
2021/12/04 12:36:04;;;;;;;;;;;;;;;7.70;91.73;99214.25;5053313;28;19929;-81
2021/12/04 12:38:32;;;;;;;;;;;;;;;7.71;90.76;99218.59;5052933;28;19932;-81
2021/12/04 12:41:00;;;;;;;;;;;;;;;7.74;91.75;99215.69;5053090;28;19933;-81
2021/12/04 12:43:34;;;;;;;;;;;;;;;7.75;90.89;99220.00;5052710;28;19929;-81
2021/12/04 12:46:00;;;;;;;;;;;;;;;7.79;91.76;99217.94;5052769;28;20434;-81
2021/12/04 12:48:28;;;;;;;;;;;;;;;7.82;91.82;99207.03;5053803;28;20379;-81
2021/12/04 12:51:06;;;;;;;;;;;;;;;7.85;91.57;99211.25;5053948;28;19929;-80
2021/12/04 12:53:40;;;;;;;;;;;;;;;7.87;91.51;99204.81;5055004;28;19932;-81
2021/12/04 12:56:08;;;;;;;;;;;;;;;7.88;90.53;99217.13;5047385;28;20478;-80
2021/12/04 12:58:41;;;;;;;;;;;;;;;7.91;90.36;99213.34;5054695;28;19932;-81
2021/12/04 13:12:23;;;;;;;;;;;;;;;7.89;90.58;99216.19;4959987;28;20073;-82
2021/12/04 13:14:51;;;;;;;;;;;;;;;7.90;90.96;99215.19;4966094;28;19934;-82
2021/12/04 13:17:20;;;;;;;;;;;;;;;7.92;90.86;99223.88;5002669;28;19943;-82
2021/12/04 13:19:50;;;;;;;;;;;;;;;7.94;90.40;99226.38;5050716;28;19932;-82
2021/12/04 13:22:18;;;;;;;;;;;;;;;7.96;91.16;99227.09;5052638;28;20015;-81
2021/12/04 13:24:46;;;;;;;;;;;;;;;7.96;90.09;99225.28;5055878;28;19928;-82
2021/12/04 13:29:40;;;;;;;;;;;;;;;7.95;90.86;99223.59;5056950;28;20446;-82
2021/12/04 13:32:07;;;;;;;;;;;;;;;7.98;90.12;99222.47;5051767;28;19932;-82
2021/12/04 13:34:35;;;;;;;;;;;;;;;7.98;90.48;99227.81;5055316;28;19936;-82
2021/12/04 13:37:03;;;;;;;;;;;;;;;7.99;90.46;99225.00;5057211;28;20410;-82
2021/12/04 13:39:30;;;;;;;;;;;;;;;8.00;90.43;99228.50;5054867;28;20281;-82
2021/12/04 13:41:57;;;;;;;;;;;;;;;8.01;90.42;99230.19;5053921;28;20303;-82
2021/12/04 13:44:25;;;;;;;;;;;;;;;8.02;90.42;99231.03;5055659;28;19985;-82
2021/12/04 13:46:52;;;;;;;;;;;;;;;8.05;90.43;99244.06;5054984;28;19931;-82
2021/12/04 13:49:20;;;;;;;;;;;;;;;8.07;90.52;99240.28;5055297;28;19928;-81
2021/12/04 13:51:51;;;;;;;;;;;;;;;8.08;89.94;99244.66;5055141;28;19932;-82
2021/12/04 13:54:19;;;;;;;;;;;;;;;8.06;89.84;99241.28;5055396;28;20023;-82
2021/12/04 13:56:45;;;;;;;;;;;;;;;8.07;90.51;99245.63;5056524;28;20340;-82
2021/12/04 13:59:12;;;;;;;;;;;;;;;8.08;89.91;99236.69;5055375;28;19940;-81
2021/12/04 14:01:42;;;;;;;;;;;;;;;8.09;89.31;99242.81;5051517;28;19932;-81
2021/12/04 14:04:15;;;;;;;;;;;;;;;8.08;90.25;99244.66;5051391;28;20381;-81
2021/12/04 14:06:47;;;;;;;;;;;;;;;8.09;89.08;99251.63;5054582;28;20002;-82
2021/12/04 14:09:13;;;;;;;;;;;;;;;8.10;89.34;99257.78;5055675;28;19936;-82
2021/12/04 14:11:42;;;;;;;;;;;;;;;8.09;88.97;99256.13;5052849;28;20446;-81
2021/12/04 14:14:11;;;;;;;;;;;;;;;8.09;89.50;99262.28;5054567;28;19980;-82
2021/12/04 14:16:37;;;;;;;;;;;;;;;8.10;89.56;99263.09;5052223;28;19929;-82
2021/12/04 14:19:10;;;;;;;;;;;;;;;8.09;89.95;99264.09;5050923;28;19933;-82
2021/12/04 14:21:37;;;;;;;;;;;;;;;8.11;89.01;99270.97;5051984;28;19928;-82
2021/12/04 14:24:03;;;;;;;;;;;;;;;8.13;89.26;99274.31;5051089;28;20296;-82
2021/12/04 14:26:30;;;;;;;;;;;;;;;8.13;89.51;99274.31;5054761;28;19932;-82
2021/12/04 14:28:58;;;;;;;;;;;;;;;8.13;89.71;99281.47;5053266;28;23698;-82
2021/12/04 14:31:24;;;;;;;;;;;;;;;8.15;89.93;99284.84;5054051;28;19914;-82
2021/12/04 14:33:51;;;;;;;;;;;;;;;8.14;89.47;99286.66;5056605;28;20189;-82
2021/12/04 14:36:18;;;;;;;;;;;;;;;8.14;88.67;99286.66;5054371;28;20663;-81
2021/12/04 14:38:47;;;;;;;;;;;;;;;8.12;89.10;99285.94;5053747;28;19940;-81
2021/12/04 14:41:14;;;;;;;;;;;;;;;8.17;89.50;99282.88;5056927;28;19929;-81
2021/12/04 14:43:40;;;;;;;;;;;;;;;8.21;90.26;99278.97;5054746;28;19932;-81
2021/12/04 14:46:09;;;;;;;;;;;;;;;8.26;89.18;99283.91;5052112;28;20380;-82
2021/12/04 14:48:38;;;;;;;;;;;;;;;8.29;89.88;99287.13;5050112;28;19932;-81
2021/12/04 14:51:06;;;;;;;;;;;;;;;8.34;89.73;99284.06;5054554;28;19928;-81
2021/12/04 14:53:34;;;;;;;;;;;;;;;8.38;90.75;99288.13;5053213;28;20024;-82
2021/12/04 14:56:04;;;;;;;;;;;;;;;8.41;89.48;99293.19;5055064;28;19940;-81
2021/12/04 14:58:32;;;;;;;;;;;;;;;7.77;90.42;99186.16;5053107;28;19932;-82
2021/12/04 15:01:00;;;;;;;;;;;;;;;8.37;88.97;99292.63;5054169;28;19938;-81
2021/12/04 15:03:33;;;;;;;;;;;;;;;8.36;88.83;99300.72;5057782;28;19932;-82
2021/12/04 15:06:03;;;;;;;;;;;;;;;8.35;89.07;99302.56;5050682;28;20303;-81
2021/12/04 15:08:30;;;;;;;;;;;;;;;8.35;89.35;99309.69;5054893;28;19936;-82
2021/12/04 15:10:58;;;;;;;;;;;;;;;8.35;89.29;99309.69;5054972;28;19928;-82
2021/12/04 15:13:26;;;;;;;;;;;;;;;8.34;87.87;99311.53;5053950;28;19933;-81
2021/12/04 15:15:53;;;;;;;;;;;;;;;8.32;88.36;99315.28;5052553;28;20360;-81
2021/12/04 15:18:23;;;;;;;;;;;;;;;8.28;88.30;99312.03;5051234;28;20023;-81
2021/12/04 15:20:55;;;;;;;;;;;;;;;8.26;87.00;99319.31;5052211;28;22668;-81
2021/12/04 15:23:25;;;;;;;;;;;;;;;8.25;86.87;99322.97;5053279;28;20378;-81
2021/12/04 15:25:55;;;;;;;;;;;;;;;8.24;86.36;99329.25;5046139;28;19935;-81
2021/12/04 15:28:23;;;;;;;;;;;;;;;8.21;86.73;99332.16;5055768;28;20368;-81
2021/12/04 15:30:51;;;;;;;;;;;;;;;8.19;85.93;99327.00;5051326;28;19932;-81
2021/12/04 15:33:22;;;;;;;;;;;;;;;8.18;86.74;99335.09;5054442;28;19925;-81